sensor_id;sensor_type;location;lat;lon;timestamp;temperature;humidity
42489;DHT22;28118;52.388;9.452;2022-10-30T00:00:46;16.20;99.90
42489;DHT22;28118;52.388;9.452;2022-10-30T00:03:14;16.10;99.90
42489;DHT22;28118;52.388;9.452;2022-10-30T00:05:42;16.10;99.90
42489;DHT22;28118;52.388;9.452;2022-10-30T00:08:11;16.10;99.90
42489;DHT22;28118;52.388;9.452;2022-10-30T00:10:38;16.10;99.90
42489;DHT22;28118;52.388;9.452;2022-10-30T00:13:06;16.30;99.90
42489;DHT22;28118;52.388;9.452;2022-10-30T00:15:33;16.40;99.90
42489;DHT22;28118;52.388;9.452;2022-10-30T00:17:59;16.50;99.90
42489;DHT22;28118;52.388;9.452;2022-10-30T00:20:26;16.50;99.90
42489;DHT22;28118;52.388;9.452;2022-10-30T00:22:53;16.40;99.90
42489;DHT22;28118;52.388;9.452;2022-10-30T00:25:20;16.30;99.90
42489;DHT22;28118;52.388;9.452;2022-10-30T00:27:47;16.30;99.90
42489;DHT22;28118;52.388;9.452;2022-10-30T00:30:14;16.20;99.90
42489;DHT22;28118;52.388;9.452;2022-10-30T00:32:41;16.20;99.90
42489;DHT22;28118;52.388;9.452;2022-10-30T00:35:09;16.10;99.90
42489;DHT22;28118;52.388;9.452;2022-10-30T00:37:36;16.00;99.90
42489;DHT22;28118;52.388;9.452;2022-10-30T00:40:04;15.90;99.90
42489;DHT22;28118;52.388;9.452;2022-10-30T00:42:31;15.80;99.90
42489;DHT22;28118;52.388;9.452;2022-10-30T00:44:58;15.70;99.90
42489;DHT22;28118;52.388;9.452;2022-10-30T00:50:19;15.70;99.90
42489;DHT22;28118;52.388;9.452;2022-10-30T00:53:06;15.50;99.90
42489;DHT22;28118;52.388;9.452;2022-10-30T00:55:37;15.50;99.90
42489;DHT22;28118;52.388;9.452;2022-10-30T00:58:08;15.40;99.90
42489;DHT22;28118;52.388;9.452;2022-10-30T01:00:38;15.40;99.90
42489;DHT22;28118;52.388;9.452;2022-10-30T01:03:06;15.40;99.90
42489;DHT22;28118;52.388;9.452;2022-10-30T01:05:34;15.40;99.90
42489;DHT22;28118;52.388;9.452;2022-10-30T01:08:01;15.50;99.90
42489;DHT22;28118;52.388;9.452;2022-10-30T01:10:28;15.50;99.90
42489;DHT22;28118;52.388;9.452;2022-10-30T01:12:55;15.50;99.90
42489;DHT22;28118;52.388;9.452;2022-10-30T01:15:31;15.40;99.90
42489;DHT22;28118;52.388;9.452;2022-10-30T01:21:03;15.50;99.90
42489;DHT22;28118;52.388;9.452;2022-10-30T01:26:37;15.40;99.90
42489;DHT22;28118;52.388;9.452;2022-10-30T01:32:52;15.30;99.90
42489;DHT22;28118;52.388;9.452;2022-10-30T01:35:36;15.30;99.90
42489;DHT22;28118;52.388;9.452;2022-10-30T01:38:20;15.20;99.90
42489;DHT22;28118;52.388;9.452;2022-10-30T01:40:49;15.20;99.90
42489;DHT22;28118;52.388;9.452;2022-10-30T01:43:16;15.20;99.90
42489;DHT22;28118;52.388;9.452;2022-10-30T01:51:39;15.40;99.90
42489;DHT22;28118;52.388;9.452;2022-10-30T01:54:23;15.40;99.90
42489;DHT22;28118;52.388;9.452;2022-10-30T01:59:43;15.30;99.90
42489;DHT22;28118;52.388;9.452;2022-10-30T02:02:12;15.20;99.90
42489;DHT22;28118;52.388;9.452;2022-10-30T02:04:40;15.20;99.90
42489;DHT22;28118;52.388;9.452;2022-10-30T02:07:07;15.60;99.90
42489;DHT22;28118;52.388;9.452;2022-10-30T02:09:33;15.60;99.90
42489;DHT22;28118;52.388;9.452;2022-10-30T02:12:01;15.70;99.90
42489;DHT22;28118;52.388;9.452;2022-10-30T02:14:42;15.50;99.90
42489;DHT22;28118;52.388;9.452;2022-10-30T02:17:11;15.60;99.90
42489;DHT22;28118;52.388;9.452;2022-10-30T02:19:38;15.50;99.90
42489;DHT22;28118;52.388;9.452;2022-10-30T02:22:04;15.40;99.90
42489;DHT22;28118;52.388;9.452;2022-10-30T02:24:32;15.60;99.90
42489;DHT22;28118;52.388;9.452;2022-10-30T02:26:59;15.60;99.90
42489;DHT22;28118;52.388;9.452;2022-10-30T02:29:26;15.70;99.90
42489;DHT22;28118;52.388;9.452;2022-10-30T02:31:53;15.70;99.90
42489;DHT22;28118;52.388;9.452;2022-10-30T02:34:19;15.70;99.90
42489;DHT22;28118;52.388;9.452;2022-10-30T02:36:46;15.70;99.90
42489;DHT22;28118;52.388;9.452;2022-10-30T02:39:13;15.80;99.90
42489;DHT22;28118;52.388;9.452;2022-10-30T02:41:40;15.80;99.90
42489;DHT22;28118;52.388;9.452;2022-10-30T02:44:06;16.00;99.90
42489;DHT22;28118;52.388;9.452;2022-10-30T02:46:34;16.10;99.90
42489;DHT22;28118;52.388;9.452;2022-10-30T02:49:00;16.00;99.90
42489;DHT22;28118;52.388;9.452;2022-10-30T02:51:30;16.10;99.90
42489;DHT22;28118;52.388;9.452;2022-10-30T02:53:58;16.20;99.90
42489;DHT22;28118;52.388;9.452;2022-10-30T02:56:25;16.10;99.90
42489;DHT22;28118;52.388;9.452;2022-10-30T02:58:53;16.10;99.90
42489;DHT22;28118;52.388;9.452;2022-10-30T03:01:20;15.90;99.90
42489;DHT22;28118;52.388;9.452;2022-10-30T03:03:46;15.80;99.90
42489;DHT22;28118;52.388;9.452;2022-10-30T03:06:15;15.70;99.90
42489;DHT22;28118;52.388;9.452;2022-10-30T03:08:42;15.60;99.90
42489;DHT22;28118;52.388;9.452;2022-10-30T03:11:14;15.60;99.90
42489;DHT22;28118;52.388;9.452;2022-10-30T03:13:43;15.40;99.90
42489;DHT22;28118;52.388;9.452;2022-10-30T03:16:12;15.40;99.90
42489;DHT22;28118;52.388;9.452;2022-10-30T03:18:39;15.30;99.90
42489;DHT22;28118;52.388;9.452;2022-10-30T03:21:09;15.20;99.90
42489;DHT22;28118;52.388;9.452;2022-10-30T03:23:36;15.10;99.90
42489;DHT22;28118;52.388;9.452;2022-10-30T03:26:03;15.00;99.90
42489;DHT22;28118;52.388;9.452;2022-10-30T03:28:31;14.90;99.90
42489;DHT22;28118;52.388;9.452;2022-10-30T03:31:00;14.80;99.90
42489;DHT22;28118;52.388;9.452;2022-10-30T03:33:27;14.80;99.90
42489;DHT22;28118;52.388;9.452;2022-10-30T03:35:54;14.80;99.90
42489;DHT22;28118;52.388;9.452;2022-10-30T03:38:21;14.80;99.90
42489;DHT22;28118;52.388;9.452;2022-10-30T03:40:47;14.80;99.90
42489;DHT22;28118;52.388;9.452;2022-10-30T03:43:14;14.80;99.90
42489;DHT22;28118;52.388;9.452;2022-10-30T03:45:46;14.90;99.90
42489;DHT22;28118;52.388;9.452;2022-10-30T03:48:13;14.90;99.90
42489;DHT22;28118;52.388;9.452;2022-10-30T03:50:40;15.10;99.90
42489;DHT22;28118;52.388;9.452;2022-10-30T03:53:06;15.30;99.90
42489;DHT22;28118;52.388;9.452;2022-10-30T03:55:33;15.40;99.90
42489;DHT22;28118;52.388;9.452;2022-10-30T03:58:00;15.40;99.90
42489;DHT22;28118;52.388;9.452;2022-10-30T04:00:26;15.40;99.90
42489;DHT22;28118;52.388;9.452;2022-10-30T04:02:53;15.30;99.90
42489;DHT22;28118;52.388;9.452;2022-10-30T04:05:22;15.10;99.90
42489;DHT22;28118;52.388;9.452;2022-10-30T04:07:55;15.00;99.90
42489;DHT22;28118;52.388;9.452;2022-10-30T04:10:22;14.80;99.90
42489;DHT22;28118;52.388;9.452;2022-10-30T04:12:50;14.70;99.90
42489;DHT22;28118;52.388;9.452;2022-10-30T04:15:18;14.60;99.90
42489;DHT22;28118;52.388;9.452;2022-10-30T04:17:51;14.60;99.90
42489;DHT22;28118;52.388;9.452;2022-10-30T04:20:18;14.50;99.90
42489;DHT22;28118;52.388;9.452;2022-10-30T04:22:45;14.40;99.90
42489;DHT22;28118;52.388;9.452;2022-10-30T04:25:12;14.30;99.90
42489;DHT22;28118;52.388;9.452;2022-10-30T04:27:42;14.30;99.90
42489;DHT22;28118;52.388;9.452;2022-10-30T04:30:11;14.20;99.90
42489;DHT22;28118;52.388;9.452;2022-10-30T04:33:04;14.20;99.90
42489;DHT22;28118;52.388;9.452;2022-10-30T04:35:33;14.10;99.90
42489;DHT22;28118;52.388;9.452;2022-10-30T04:38:04;14.10;99.90
42489;DHT22;28118;52.388;9.452;2022-10-30T04:40:33;14.10;99.90
42489;DHT22;28118;52.388;9.452;2022-10-30T04:43:00;14.00;99.90
42489;DHT22;28118;52.388;9.452;2022-10-30T04:45:28;14.00;99.90
42489;DHT22;28118;52.388;9.452;2022-10-30T04:48:15;14.10;99.90
42489;DHT22;28118;52.388;9.452;2022-10-30T04:50:42;14.00;99.90
42489;DHT22;28118;52.388;9.452;2022-10-30T04:53:17;14.00;99.90
42489;DHT22;28118;52.388;9.452;2022-10-30T04:55:44;13.90;99.90
42489;DHT22;28118;52.388;9.452;2022-10-30T04:58:11;13.90;99.90
42489;DHT22;28118;52.388;9.452;2022-10-30T05:00:39;13.90;99.90
42489;DHT22;28118;52.388;9.452;2022-10-30T05:03:06;13.80;99.90
42489;DHT22;28118;52.388;9.452;2022-10-30T05:05:32;13.90;99.90
42489;DHT22;28118;52.388;9.452;2022-10-30T05:07:59;13.80;99.90
42489;DHT22;28118;52.388;9.452;2022-10-30T05:10:26;13.80;99.90
42489;DHT22;28118;52.388;9.452;2022-10-30T05:12:53;13.80;99.90
42489;DHT22;28118;52.388;9.452;2022-10-30T05:15:20;13.80;99.90
42489;DHT22;28118;52.388;9.452;2022-10-30T05:17:50;13.70;99.90
42489;DHT22;28118;52.388;9.452;2022-10-30T05:20:17;13.70;99.90
42489;DHT22;28118;52.388;9.452;2022-10-30T05:22:44;13.70;99.90
42489;DHT22;28118;52.388;9.452;2022-10-30T05:25:11;13.70;99.90
42489;DHT22;28118;52.388;9.452;2022-10-30T05:27:38;13.70;99.90
42489;DHT22;28118;52.388;9.452;2022-10-30T05:30:05;13.70;99.90
42489;DHT22;28118;52.388;9.452;2022-10-30T05:32:32;13.70;99.90
42489;DHT22;28118;52.388;9.452;2022-10-30T05:34:59;13.70;99.90
42489;DHT22;28118;52.388;9.452;2022-10-30T05:37:25;13.70;99.90
42489;DHT22;28118;52.388;9.452;2022-10-30T05:39:52;13.70;99.90
42489;DHT22;28118;52.388;9.452;2022-10-30T05:42:19;13.60;99.90
42489;DHT22;28118;52.388;9.452;2022-10-30T05:44:45;13.60;99.90
42489;DHT22;28118;52.388;9.452;2022-10-30T05:47:26;13.60;99.90
42489;DHT22;28118;52.388;9.452;2022-10-30T05:49:52;13.60;99.90
42489;DHT22;28118;52.388;9.452;2022-10-30T05:52:19;13.60;99.90
42489;DHT22;28118;52.388;9.452;2022-10-30T05:54:46;13.60;99.90
42489;DHT22;28118;52.388;9.452;2022-10-30T05:57:12;13.60;99.90
42489;DHT22;28118;52.388;9.452;2022-10-30T05:59:39;13.60;99.90
42489;DHT22;28118;52.388;9.452;2022-10-30T06:02:06;13.60;99.90
42489;DHT22;28118;52.388;9.452;2022-10-30T06:04:32;13.50;99.90
42489;DHT22;28118;52.388;9.452;2022-10-30T06:06:59;13.60;99.90
42489;DHT22;28118;52.388;9.452;2022-10-30T06:09:26;13.60;99.90
42489;DHT22;28118;52.388;9.452;2022-10-30T06:11:53;13.60;99.90
42489;DHT22;28118;52.388;9.452;2022-10-30T06:14:19;13.50;99.90
42489;DHT22;28118;52.388;9.452;2022-10-30T06:16:47;13.40;99.90
42489;DHT22;28118;52.388;9.452;2022-10-30T06:19:14;13.40;99.90
42489;DHT22;28118;52.388;9.452;2022-10-30T06:21:44;13.50;99.90
42489;DHT22;28118;52.388;9.452;2022-10-30T06:24:12;13.40;99.90
42489;DHT22;28118;52.388;9.452;2022-10-30T06:26:39;13.40;99.90
42489;DHT22;28118;52.388;9.452;2022-10-30T06:29:06;13.40;99.90
42489;DHT22;28118;52.388;9.452;2022-10-30T06:31:32;13.30;99.90
42489;DHT22;28118;52.388;9.452;2022-10-30T06:33:59;13.20;99.90
42489;DHT22;28118;52.388;9.452;2022-10-30T06:36:26;13.20;99.90
42489;DHT22;28118;52.388;9.452;2022-10-30T06:38:53;13.10;99.90
42489;DHT22;28118;52.388;9.452;2022-10-30T06:41:19;13.10;99.90
42489;DHT22;28118;52.388;9.452;2022-10-30T06:43:54;13.10;99.90
42489;DHT22;28118;52.388;9.452;2022-10-30T06:46:21;13.10;99.90
42489;DHT22;28118;52.388;9.452;2022-10-30T06:48:52;13.10;99.90
42489;DHT22;28118;52.388;9.452;2022-10-30T06:51:19;13.10;99.90
42489;DHT22;28118;52.388;9.452;2022-10-30T06:53:46;13.10;99.90
42489;DHT22;28118;52.388;9.452;2022-10-30T06:56:13;13.00;99.90
42489;DHT22;28118;52.388;9.452;2022-10-30T06:58:39;13.10;99.90
42489;DHT22;28118;52.388;9.452;2022-10-30T07:01:06;13.10;99.90
42489;DHT22;28118;52.388;9.452;2022-10-30T07:03:33;13.30;99.90
42489;DHT22;28118;52.388;9.452;2022-10-30T07:06:00;13.40;99.90
42489;DHT22;28118;52.388;9.452;2022-10-30T07:08:27;13.40;99.90
42489;DHT22;28118;52.388;9.452;2022-10-30T07:10:55;13.50;99.90
42489;DHT22;28118;52.388;9.452;2022-10-30T07:13:23;13.60;99.90
42489;DHT22;28118;52.388;9.452;2022-10-30T07:15:50;13.80;99.90
42489;DHT22;28118;52.388;9.452;2022-10-30T07:18:17;14.00;99.90
42489;DHT22;28118;52.388;9.452;2022-10-30T07:20:43;14.00;99.90
42489;DHT22;28118;52.388;9.452;2022-10-30T07:23:10;14.10;99.90
42489;DHT22;28118;52.388;9.452;2022-10-30T07:25:36;14.10;99.90
42489;DHT22;28118;52.388;9.452;2022-10-30T07:28:03;14.10;99.90
42489;DHT22;28118;52.388;9.452;2022-10-30T07:30:30;14.10;99.90
42489;DHT22;28118;52.388;9.452;2022-10-30T07:33:04;14.20;99.90
42489;DHT22;28118;52.388;9.452;2022-10-30T07:35:33;14.20;99.90
42489;DHT22;28118;52.388;9.452;2022-10-30T07:38:04;14.30;99.90
42489;DHT22;28118;52.388;9.452;2022-10-30T07:40:32;14.30;99.90
42489;DHT22;28118;52.388;9.452;2022-10-30T07:43:00;14.40;99.90
42489;DHT22;28118;52.388;9.452;2022-10-30T07:45:28;14.40;99.90
42489;DHT22;28118;52.388;9.452;2022-10-30T07:47:55;14.50;99.90
42489;DHT22;28118;52.388;9.452;2022-10-30T07:50:23;14.60;99.90
42489;DHT22;28118;52.388;9.452;2022-10-30T07:52:50;14.70;99.90
42489;DHT22;28118;52.388;9.452;2022-10-30T07:55:16;14.80;99.90
42489;DHT22;28118;52.388;9.452;2022-10-30T07:57:43;14.90;99.90
42489;DHT22;28118;52.388;9.452;2022-10-30T08:00:12;15.00;99.90
42489;DHT22;28118;52.388;9.452;2022-10-30T08:02:39;15.10;99.90
42489;DHT22;28118;52.388;9.452;2022-10-30T08:05:07;15.20;99.90
42489;DHT22;28118;52.388;9.452;2022-10-30T08:07:36;15.30;99.90
42489;DHT22;28118;52.388;9.452;2022-10-30T08:10:05;15.40;99.90
42489;DHT22;28118;52.388;9.452;2022-10-30T08:12:33;15.60;99.90
42489;DHT22;28118;52.388;9.452;2022-10-30T08:15:00;15.70;99.90
42489;DHT22;28118;52.388;9.452;2022-10-30T08:17:27;15.80;99.90
42489;DHT22;28118;52.388;9.452;2022-10-30T08:19:54;15.90;99.90
42489;DHT22;28118;52.388;9.452;2022-10-30T08:22:22;16.00;99.90
42489;DHT22;28118;52.388;9.452;2022-10-30T08:24:52;16.20;99.90
42489;DHT22;28118;52.388;9.452;2022-10-30T08:27:18;16.30;99.90
42489;DHT22;28118;52.388;9.452;2022-10-30T08:29:45;16.40;99.90
42489;DHT22;28118;52.388;9.452;2022-10-30T08:32:13;16.40;99.90
42489;DHT22;28118;52.388;9.452;2022-10-30T08:34:40;16.50;99.90
42489;DHT22;28118;52.388;9.452;2022-10-30T08:37:07;16.60;99.90
42489;DHT22;28118;52.388;9.452;2022-10-30T08:39:34;16.70;99.90
42489;DHT22;28118;52.388;9.452;2022-10-30T08:42:01;16.90;99.90
42489;DHT22;28118;52.388;9.452;2022-10-30T08:44:27;17.00;99.90
42489;DHT22;28118;52.388;9.452;2022-10-30T08:46:54;17.10;99.90
42489;DHT22;28118;52.388;9.452;2022-10-30T08:49:20;17.30;99.90
42489;DHT22;28118;52.388;9.452;2022-10-30T08:51:47;17.40;99.90
42489;DHT22;28118;52.388;9.452;2022-10-30T08:54:14;17.60;99.90
42489;DHT22;28118;52.388;9.452;2022-10-30T08:56:40;17.70;99.90
42489;DHT22;28118;52.388;9.452;2022-10-30T08:59:07;17.90;99.90
42489;DHT22;28118;52.388;9.452;2022-10-30T09:01:34;18.10;99.90
42489;DHT22;28118;52.388;9.452;2022-10-30T09:04:02;18.10;99.90
42489;DHT22;28118;52.388;9.452;2022-10-30T09:06:30;18.30;99.90
42489;DHT22;28118;52.388;9.452;2022-10-30T09:08:57;18.30;99.90
42489;DHT22;28118;52.388;9.452;2022-10-30T09:11:23;18.50;99.90
42489;DHT22;28118;52.388;9.452;2022-10-30T09:13:50;18.70;99.90
42489;DHT22;28118;52.388;9.452;2022-10-30T09:16:17;18.90;99.90
42489;DHT22;28118;52.388;9.452;2022-10-30T09:18:43;19.00;99.90
42489;DHT22;28118;52.388;9.452;2022-10-30T09:21:10;19.10;99.90
42489;DHT22;28118;52.388;9.452;2022-10-30T09:23:37;19.10;99.90
42489;DHT22;28118;52.388;9.452;2022-10-30T09:26:03;19.20;99.90
42489;DHT22;28118;52.388;9.452;2022-10-30T09:28:30;19.30;99.90
42489;DHT22;28118;52.388;9.452;2022-10-30T09:30:57;19.30;99.90
42489;DHT22;28118;52.388;9.452;2022-10-30T09:33:23;19.40;99.90
42489;DHT22;28118;52.388;9.452;2022-10-30T09:35:50;19.40;99.90
42489;DHT22;28118;52.388;9.452;2022-10-30T09:38:17;19.40;99.90
42489;DHT22;28118;52.388;9.452;2022-10-30T09:49:04;19.50;99.90
42489;DHT22;28118;52.388;9.452;2022-10-30T09:54:25;19.60;99.90
42489;DHT22;28118;52.388;9.452;2022-10-30T09:57:10;19.60;99.90
42489;DHT22;28118;52.388;9.452;2022-10-30T10:02:29;19.60;99.90
42489;DHT22;28118;52.388;9.452;2022-10-30T10:05:02;19.70;99.90
42489;DHT22;28118;52.388;9.452;2022-10-30T10:07:53;19.80;99.90
42489;DHT22;28118;52.388;9.452;2022-10-30T10:10:44;19.80;99.90
42489;DHT22;28118;52.388;9.452;2022-10-30T10:13:39;19.70;99.90
42489;DHT22;28118;52.388;9.452;2022-10-30T10:16:26;19.90;99.90
42489;DHT22;28118;52.388;9.452;2022-10-30T10:19:03;19.90;99.90
42489;DHT22;28118;52.388;9.452;2022-10-30T10:21:39;19.90;99.90
42489;DHT22;28118;52.388;9.452;2022-10-30T10:24:17;19.90;99.90
42489;DHT22;28118;52.388;9.452;2022-10-30T10:29:27;20.00;99.90
42489;DHT22;28118;52.388;9.452;2022-10-30T10:37:55;20.00;99.90
42489;DHT22;28118;52.388;9.452;2022-10-30T10:47:00;20.40;99.90
42489;DHT22;28118;52.388;9.452;2022-10-30T10:49:55;20.60;99.90
42489;DHT22;28118;52.388;9.452;2022-10-30T10:52:29;20.60;99.90
42489;DHT22;28118;52.388;9.452;2022-10-30T10:55:03;20.70;99.90
42489;DHT22;28118;52.388;9.452;2022-10-30T10:57:50;20.80;99.90
42489;DHT22;28118;52.388;9.452;2022-10-30T11:00:19;21.00;99.90
42489;DHT22;28118;52.388;9.452;2022-10-30T11:05:37;21.30;99.90
42489;DHT22;28118;52.388;9.452;2022-10-30T11:08:30;21.50;99.90
42489;DHT22;28118;52.388;9.452;2022-10-30T11:10:58;21.70;99.90
42489;DHT22;28118;52.388;9.452;2022-10-30T11:13:37;21.80;99.90
42489;DHT22;28118;52.388;9.452;2022-10-30T11:18:33;22.10;99.90
42489;DHT22;28118;52.388;9.452;2022-10-30T11:21:16;22.20;99.90
42489;DHT22;28118;52.388;9.452;2022-10-30T11:23:46;22.30;99.90
42489;DHT22;28118;52.388;9.452;2022-10-30T11:31:22;22.50;99.90
42489;DHT22;28118;52.388;9.452;2022-10-30T11:33:49;22.60;99.90
42489;DHT22;28118;52.388;9.452;2022-10-30T11:36:21;22.90;99.90
42489;DHT22;28118;52.388;9.452;2022-10-30T11:38:49;23.00;99.90
42489;DHT22;28118;52.388;9.452;2022-10-30T11:41:16;23.20;99.90
42489;DHT22;28118;52.388;9.452;2022-10-30T11:43:44;23.30;99.90
42489;DHT22;28118;52.388;9.452;2022-10-30T11:46:19;23.40;99.90
42489;DHT22;28118;52.388;9.452;2022-10-30T11:48:47;23.20;99.90
42489;DHT22;28118;52.388;9.452;2022-10-30T11:51:35;23.20;99.90
42489;DHT22;28118;52.388;9.452;2022-10-30T11:54:03;23.20;99.90
42489;DHT22;28118;52.388;9.452;2022-10-30T11:56:31;23.30;99.90
42489;DHT22;28118;52.388;9.452;2022-10-30T11:59:00;23.50;99.90
42489;DHT22;28118;52.388;9.452;2022-10-30T12:01:30;23.70;99.90
42489;DHT22;28118;52.388;9.452;2022-10-30T12:04:20;23.90;99.90
42489;DHT22;28118;52.388;9.452;2022-10-30T12:07:38;24.10;99.90
42489;DHT22;28118;52.388;9.452;2022-10-30T12:09:44;24.30;99.90
42489;DHT22;28118;52.388;9.452;2022-10-30T12:12:20;24.20;99.90
42489;DHT22;28118;52.388;9.452;2022-10-30T12:14:47;24.20;99.90
42489;DHT22;28118;52.388;9.452;2022-10-30T12:17:15;24.40;99.90
42489;DHT22;28118;52.388;9.452;2022-10-30T12:19:51;24.50;99.90
42489;DHT22;28118;52.388;9.452;2022-10-30T12:22:30;24.50;99.90
42489;DHT22;28118;52.388;9.452;2022-10-30T12:24:59;24.60;99.90
42489;DHT22;28118;52.388;9.452;2022-10-30T12:27:29;24.40;99.90
42489;DHT22;28118;52.388;9.452;2022-10-30T12:29:59;24.50;99.90
42489;DHT22;28118;52.388;9.452;2022-10-30T12:32:56;24.50;99.90
42489;DHT22;28118;52.388;9.452;2022-10-30T12:35:39;24.80;99.90
42489;DHT22;28118;52.388;9.452;2022-10-30T12:38:20;24.80;99.90
42489;DHT22;28118;52.388;9.452;2022-10-30T12:43:51;24.80;99.90
42489;DHT22;28118;52.388;9.452;2022-10-30T12:51:59;24.50;99.90
42489;DHT22;28118;52.388;9.452;2022-10-30T12:54:38;24.60;99.90
42489;DHT22;28118;52.388;9.452;2022-10-30T12:57:13;24.50;99.90
42489;DHT22;28118;52.388;9.452;2022-10-30T12:59:50;24.60;99.90
42489;DHT22;28118;52.388;9.452;2022-10-30T13:04:58;24.30;99.90
42489;DHT22;28118;52.388;9.452;2022-10-30T13:07:50;24.30;99.90
42489;DHT22;28118;52.388;9.452;2022-10-30T13:12:49;23.90;99.90
42489;DHT22;28118;52.388;9.452;2022-10-30T13:15:26;23.60;99.90
42489;DHT22;28118;52.388;9.452;2022-10-30T13:17:56;23.30;99.90
42489;DHT22;28118;52.388;9.452;2022-10-30T13:20:25;22.90;99.90
42489;DHT22;28118;52.388;9.452;2022-10-30T13:23:07;22.70;99.90
42489;DHT22;28118;52.388;9.452;2022-10-30T13:26:06;22.40;99.90
42489;DHT22;28118;52.388;9.452;2022-10-30T13:28:38;22.30;99.90
42489;DHT22;28118;52.388;9.452;2022-10-30T13:42:45;21.80;99.90
42489;DHT22;28118;52.388;9.452;2022-10-30T13:48:06;21.70;99.90
42489;DHT22;28118;52.388;9.452;2022-10-30T13:53:29;21.70;99.90
42489;DHT22;28118;52.388;9.452;2022-10-30T13:55:58;21.70;99.90
42489;DHT22;28118;52.388;9.452;2022-10-30T13:58:44;21.80;99.90
42489;DHT22;28118;52.388;9.452;2022-10-30T14:01:32;21.80;99.90
42489;DHT22;28118;52.388;9.452;2022-10-30T14:09:59;21.70;99.90
42489;DHT22;28118;52.388;9.452;2022-10-30T14:20:38;21.70;99.90
42489;DHT22;28118;52.388;9.452;2022-10-30T14:23:19;21.70;99.90
42489;DHT22;28118;52.388;9.452;2022-10-30T14:28:34;21.70;99.90
42489;DHT22;28118;52.388;9.452;2022-10-30T14:36:24;21.50;99.90
42489;DHT22;28118;52.388;9.452;2022-10-30T14:50:01;21.40;99.90
42489;DHT22;28118;52.388;9.452;2022-10-30T14:55:47;21.20;99.90
42489;DHT22;28118;52.388;9.452;2022-10-30T14:58:25;21.10;99.90
42489;DHT22;28118;52.388;9.452;2022-10-30T15:03:56;20.90;99.90
42489;DHT22;28118;52.388;9.452;2022-10-30T15:09:30;20.70;99.90
42489;DHT22;28118;52.388;9.452;2022-10-30T15:12:29;20.50;99.90
42489;DHT22;28118;52.388;9.452;2022-10-30T15:15:04;20.40;99.90
42489;DHT22;28118;52.388;9.452;2022-10-30T15:17:36;20.30;99.90
42489;DHT22;28118;52.388;9.452;2022-10-30T15:20:19;20.20;99.90
42489;DHT22;28118;52.388;9.452;2022-10-30T15:22:53;20.10;99.90
42489;DHT22;28118;52.388;9.452;2022-10-30T15:25:22;20.00;99.90
42489;DHT22;28118;52.388;9.452;2022-10-30T15:27:52;19.90;99.90
42489;DHT22;28118;52.388;9.452;2022-10-30T15:30:24;19.70;99.90
42489;DHT22;28118;52.388;9.452;2022-10-30T15:32:52;19.60;99.90
42489;DHT22;28118;52.388;9.452;2022-10-30T15:35:24;19.50;99.90
42489;DHT22;28118;52.388;9.452;2022-10-30T15:38:05;19.30;99.90
42489;DHT22;28118;52.388;9.452;2022-10-30T15:40:38;19.20;99.90
42489;DHT22;28118;52.388;9.452;2022-10-30T15:43:07;19.00;99.90
42489;DHT22;28118;52.388;9.452;2022-10-30T15:45:39;18.80;99.90
42489;DHT22;28118;52.388;9.452;2022-10-30T15:48:07;18.60;99.90
42489;DHT22;28118;52.388;9.452;2022-10-30T15:50:41;18.50;99.90
42489;DHT22;28118;52.388;9.452;2022-10-30T15:53:17;18.40;99.90
42489;DHT22;28118;52.388;9.452;2022-10-30T15:55:44;18.20;99.90
42489;DHT22;28118;52.388;9.452;2022-10-30T15:58:15;18.00;99.90
42489;DHT22;28118;52.388;9.452;2022-10-30T16:00:57;17.90;99.90
42489;DHT22;28118;52.388;9.452;2022-10-30T16:03:24;17.80;99.90
42489;DHT22;28118;52.388;9.452;2022-10-30T16:06:05;17.70;99.90
42489;DHT22;28118;52.388;9.452;2022-10-30T16:08:41;17.60;99.90
42489;DHT22;28118;52.388;9.452;2022-10-30T16:11:08;17.50;99.90
42489;DHT22;28118;52.388;9.452;2022-10-30T16:13:35;17.40;99.90
42489;DHT22;28118;52.388;9.452;2022-10-30T16:16:03;17.30;99.90
42489;DHT22;28118;52.388;9.452;2022-10-30T16:18:32;17.20;99.90
42489;DHT22;28118;52.388;9.452;2022-10-30T16:21:06;17.10;99.90
42489;DHT22;28118;52.388;9.452;2022-10-30T16:23:39;17.10;99.90
42489;DHT22;28118;52.388;9.452;2022-10-30T16:26:26;17.00;99.90
42489;DHT22;28118;52.388;9.452;2022-10-30T16:28:55;16.90;99.90
42489;DHT22;28118;52.388;9.452;2022-10-30T16:31:23;16.80;99.90
42489;DHT22;28118;52.388;9.452;2022-10-30T16:33:52;16.70;99.90
42489;DHT22;28118;52.388;9.452;2022-10-30T16:36:19;16.70;99.90
42489;DHT22;28118;52.388;9.452;2022-10-30T16:38:46;16.60;99.90
42489;DHT22;28118;52.388;9.452;2022-10-30T16:41:14;16.60;99.90
42489;DHT22;28118;52.388;9.452;2022-10-30T16:43:42;16.50;99.90
42489;DHT22;28118;52.388;9.452;2022-10-30T16:48:50;16.40;99.90
42489;DHT22;28118;52.388;9.452;2022-10-30T16:51:19;16.30;99.90
42489;DHT22;28118;52.388;9.452;2022-10-30T16:53:47;16.30;99.90
42489;DHT22;28118;52.388;9.452;2022-10-30T16:56:30;16.30;99.90
42489;DHT22;28118;52.388;9.452;2022-10-30T16:59:13;16.30;99.90
42489;DHT22;28118;52.388;9.452;2022-10-30T17:01:40;16.20;99.90
42489;DHT22;28118;52.388;9.452;2022-10-30T17:04:12;16.20;99.90
42489;DHT22;28118;52.388;9.452;2022-10-30T17:06:45;16.10;99.90
42489;DHT22;28118;52.388;9.452;2022-10-30T17:09:25;16.10;99.90
42489;DHT22;28118;52.388;9.452;2022-10-30T17:12:17;16.00;99.90
42489;DHT22;28118;52.388;9.452;2022-10-30T17:17:34;15.90;99.90
42489;DHT22;28118;52.388;9.452;2022-10-30T17:23:04;15.80;99.90
42489;DHT22;28118;52.388;9.452;2022-10-30T17:25:36;15.70;99.90
42489;DHT22;28118;52.388;9.452;2022-10-30T17:28:03;15.60;99.90
42489;DHT22;28118;52.388;9.452;2022-10-30T17:30:35;15.60;99.90
42489;DHT22;28118;52.388;9.452;2022-10-30T17:33:34;15.50;99.90
42489;DHT22;28118;52.388;9.452;2022-10-30T17:36:03;15.50;99.90
42489;DHT22;28118;52.388;9.452;2022-10-30T17:38:30;15.40;99.90
42489;DHT22;28118;52.388;9.452;2022-10-30T17:40:57;15.40;99.90
42489;DHT22;28118;52.388;9.452;2022-10-30T17:43:27;15.40;99.90
42489;DHT22;28118;52.388;9.452;2022-10-30T17:45:55;15.40;99.90
42489;DHT22;28118;52.388;9.452;2022-10-30T17:48:27;15.40;99.90
42489;DHT22;28118;52.388;9.452;2022-10-30T17:50:54;15.40;99.90
42489;DHT22;28118;52.388;9.452;2022-10-30T17:53:23;15.40;99.90
42489;DHT22;28118;52.388;9.452;2022-10-30T17:55:56;15.40;99.90
42489;DHT22;28118;52.388;9.452;2022-10-30T17:58:24;15.40;99.90
42489;DHT22;28118;52.388;9.452;2022-10-30T18:00:51;15.40;99.90
42489;DHT22;28118;52.388;9.452;2022-10-30T18:03:18;15.40;99.90
42489;DHT22;28118;52.388;9.452;2022-10-30T18:05:45;15.40;99.90
42489;DHT22;28118;52.388;9.452;2022-10-30T18:08:12;15.30;99.90
42489;DHT22;28118;52.388;9.452;2022-10-30T18:10:39;15.30;99.90
42489;DHT22;28118;52.388;9.452;2022-10-30T18:13:07;15.30;99.90